createdAt,value
2023-04-21T00:01:23.165Z,2.51
2023-04-21T00:03:50.768Z,2.55
2023-04-21T00:06:23.492Z,2.56
2023-04-21T00:08:50.703Z,2.62
2023-04-21T00:11:17.805Z,2.62
2023-04-21T00:13:44.533Z,2.59
2023-04-21T00:16:11.094Z,2.55
2023-04-21T00:18:37.685Z,2.59
2023-04-21T00:21:04.414Z,2.57
2023-04-21T00:23:30.903Z,2.52
2023-04-21T00:25:57.403Z,2.49
2023-04-21T00:28:24.103Z,2.49
2023-04-21T00:30:50.580Z,2.46
2023-04-21T00:33:17.012Z,2.46
2023-04-21T00:35:43.464Z,2.39
2023-04-21T00:38:09.902Z,2.41
2023-04-21T00:40:36.438Z,2.45
2023-04-21T00:43:06.512Z,2.42
2023-04-21T00:45:33.294Z,2.45
2023-04-21T00:47:59.802Z,2.44
2023-04-21T00:50:27.937Z,2.51
2023-04-21T00:52:56.113Z,2.53
2023-04-21T00:55:22.800Z,2.53
2023-04-21T00:57:52.094Z,2.59
2023-04-21T01:00:19.045Z,2.62
2023-04-21T01:02:45.896Z,2.64
2023-04-21T01:05:12.761Z,2.66
2023-04-21T01:07:39.444Z,2.68
2023-04-21T01:10:06.590Z,2.70
2023-04-21T01:12:33.007Z,2.74
2023-04-21T01:14:59.527Z,2.74
2023-04-21T01:17:26.947Z,2.78
2023-04-21T01:19:58.236Z,2.78
2023-04-21T01:22:24.754Z,2.77
2023-04-21T01:24:51.793Z,2.77
2023-04-21T01:27:20.205Z,2.71
2023-04-21T01:29:49.183Z,2.69
2023-04-21T01:32:20.253Z,2.68
2023-04-21T01:34:48.125Z,2.67
2023-04-21T01:37:18.688Z,2.64
2023-04-21T01:39:48.178Z,2.62
2023-04-21T01:42:14.665Z,2.61
2023-04-21T01:44:41.196Z,2.66
2023-04-21T01:47:08.915Z,2.65
2023-04-21T01:49:35.429Z,2.60
2023-04-21T01:52:01.854Z,2.56
2023-04-21T01:54:28.417Z,2.55
2023-04-21T01:56:54.990Z,2.52
2023-04-21T01:59:21.836Z,2.46
2023-04-21T02:01:48.520Z,2.43
2023-04-21T02:04:15.238Z,2.31
2023-04-21T02:06:41.863Z,2.29
2023-04-21T02:09:08.441Z,2.19
2023-04-21T02:11:34.968Z,2.08
2023-04-21T02:14:01.610Z,2.03
2023-04-21T02:16:28.216Z,2.02
2023-04-21T02:19:03.296Z,1.94
2023-04-21T02:21:29.908Z,1.97
2023-04-21T02:23:56.468Z,1.89
2023-04-21T02:26:23.654Z,1.83
2023-04-21T02:28:51.161Z,1.86
2023-04-21T02:31:18.732Z,1.81
2023-04-21T02:33:46.097Z,1.74
2023-04-21T02:36:12.895Z,1.75
2023-04-21T02:38:39.359Z,1.69
2023-04-21T02:41:05.818Z,1.66
2023-04-21T02:43:32.335Z,1.70
2023-04-21T02:45:58.816Z,1.71
2023-04-21T02:48:25.408Z,1.77
2023-04-21T02:50:53.375Z,1.66
2023-04-21T02:53:20.638Z,1.62
2023-04-21T02:55:47.236Z,1.59
2023-04-21T02:58:14.428Z,1.58
2023-04-21T03:00:41.219Z,1.58
2023-04-21T03:03:08.003Z,1.55
2023-04-21T03:05:34.674Z,1.45
2023-04-21T03:08:01.171Z,1.38
2023-04-21T03:10:27.660Z,1.33
2023-04-21T03:12:54.181Z,1.27
2023-04-21T03:15:20.992Z,1.24
2023-04-21T03:17:47.502Z,1.18
2023-04-21T03:20:14.016Z,1.13
2023-04-21T03:22:40.514Z,1.09
2023-04-21T03:25:07.785Z,0.97
2023-04-21T03:27:35.139Z,0.93
2023-04-21T03:30:01.697Z,1.01
2023-04-21T03:32:28.518Z,1.04
2023-04-21T03:34:55.027Z,1.19
2023-04-21T03:37:21.456Z,1.14
2023-04-21T03:39:47.942Z,1.26
2023-04-21T03:42:14.467Z,1.32
2023-04-21T03:44:40.917Z,1.31
2023-04-21T03:47:07.346Z,1.32
2023-04-21T03:49:34.886Z,1.35
2023-04-21T03:52:01.463Z,1.39
2023-04-21T03:54:28.022Z,1.37
2023-04-21T03:56:54.594Z,1.30
2023-04-21T03:59:21.440Z,1.29
2023-04-21T04:01:48.119Z,1.38
2023-04-21T04:04:14.879Z,1.41
2023-04-21T04:06:41.790Z,1.36
2023-04-21T04:09:09.187Z,1.25
2023-04-21T04:11:35.992Z,1.21
2023-04-21T04:14:02.528Z,1.09
2023-04-21T04:16:29.359Z,1.12
2023-04-21T04:18:56.480Z,1.12
2023-04-21T04:21:22.957Z,1.08
2023-04-21T04:23:51.784Z,1.07
2023-04-21T04:26:19.065Z,0.97
2023-04-21T04:28:46.150Z,1.07
2023-04-21T04:31:13.796Z,1.17
2023-04-21T04:33:44.125Z,1.27
2023-04-21T04:36:12.038Z,1.36
2023-04-21T04:38:38.727Z,1.45
2023-04-21T04:41:06.289Z,1.56
2023-04-21T04:43:41.844Z,1.62
2023-04-21T04:46:09.483Z,1.64
2023-04-21T04:48:35.989Z,1.64
2023-04-21T04:51:02.471Z,1.68
2023-04-21T04:53:29.493Z,1.70
2023-04-21T04:55:57.586Z,1.66
2023-04-21T04:58:24.447Z,1.71
2023-04-21T05:00:51.284Z,1.71
2023-04-21T05:03:17.962Z,1.72
2023-04-21T05:05:46.098Z,1.76
2023-04-21T05:08:12.621Z,1.73
2023-04-21T05:10:39.146Z,1.78
2023-04-21T05:13:05.672Z,1.82
2023-04-21T05:15:32.165Z,1.86
2023-04-21T05:17:58.661Z,1.90
2023-04-21T05:20:25.344Z,2.03
2023-04-21T05:22:51.809Z,2.14
2023-04-21T05:25:18.277Z,2.36
2023-04-21T05:27:44.812Z,2.59
2023-04-21T05:30:11.587Z,2.63
2023-04-21T05:32:38.317Z,2.90
2023-04-21T05:35:05.108Z,3.04
2023-04-21T05:37:31.696Z,3.33
2023-04-21T05:39:58.290Z,3.60
2023-04-21T05:42:24.728Z,3.78
2023-04-21T05:44:51.214Z,3.87
2023-04-21T05:47:17.698Z,4.04
2023-04-21T05:49:50.074Z,4.13
2023-04-21T05:52:17.744Z,3.99
2023-04-21T05:54:44.241Z,4.03
2023-04-21T05:57:10.837Z,4.30
2023-04-21T05:59:37.327Z,4.60
2023-04-21T06:02:04.285Z,5.00
2023-04-21T06:04:31.164Z,4.82
2023-04-21T06:06:57.795Z,4.77
2023-04-21T06:09:24.256Z,4.94
2023-04-21T06:11:50.798Z,5.52
2023-04-21T06:14:17.531Z,5.59
2023-04-21T06:16:44.261Z,5.98
2023-04-21T06:19:11.234Z,5.98
2023-04-21T06:21:37.707Z,5.03
2023-04-21T06:24:04.432Z,5.30
2023-04-21T06:26:30.910Z,5.59
2023-04-21T06:28:57.316Z,5.75
2023-04-21T06:31:23.823Z,5.94
2023-04-21T06:33:50.287Z,5.39
2023-04-21T06:36:18.094Z,5.41
2023-04-21T06:38:44.774Z,5.80
2023-04-21T06:41:11.254Z,6.40
2023-04-21T06:43:37.844Z,5.55
2023-04-21T06:46:04.372Z,4.83
2023-04-21T06:48:31.119Z,4.60
2023-04-21T06:50:57.612Z,5.43
2023-04-21T06:53:24.348Z,5.31
2023-04-21T06:55:53.595Z,5.47
2023-04-21T06:58:21.491Z,6.15
2023-04-21T07:00:48.195Z,5.40
2023-04-21T07:03:14.889Z,4.94
2023-04-21T07:05:41.379Z,4.67
2023-04-21T07:08:07.853Z,4.67
2023-04-21T07:10:34.299Z,4.94
2023-04-21T07:13:00.818Z,5.02
2023-04-21T07:15:27.268Z,5.23
2023-04-21T07:17:53.815Z,5.35
2023-04-21T07:20:20.482Z,5.38
2023-04-21T07:22:46.934Z,5.61
2023-04-21T07:25:13.437Z,5.32
2023-04-21T07:27:40.218Z,5.56
2023-04-21T07:30:07.698Z,5.63
2023-04-21T07:32:35.133Z,5.40
2023-04-21T07:35:02.693Z,5.82
2023-04-21T07:37:29.423Z,6.04
2023-04-21T07:39:55.901Z,6.35
2023-04-21T07:42:22.593Z,6.49
2023-04-21T07:44:49.183Z,5.95
2023-04-21T07:47:15.691Z,5.70
2023-04-21T07:49:42.168Z,5.97
2023-04-21T07:52:08.879Z,5.41
2023-04-21T07:54:35.623Z,5.90
2023-04-21T07:57:02.633Z,6.28
2023-04-21T07:59:29.348Z,6.65
2023-04-21T08:01:56.473Z,6.57
2023-04-21T08:04:23.385Z,6.69
2023-04-21T08:06:50.348Z,6.75
2023-04-21T08:09:17.217Z,6.79
2023-04-21T08:11:43.874Z,6.54
2023-04-21T08:14:11.894Z,6.65
2023-04-21T08:16:40.349Z,7.10
2023-04-21T08:19:08.182Z,7.14
2023-04-21T08:21:35.606Z,7.16
2023-04-21T08:24:02.632Z,7.34
2023-04-21T08:26:30.260Z,7.38
2023-04-21T08:28:57.321Z,6.99
2023-04-21T08:31:23.943Z,7.30
2023-04-21T08:34:00.287Z,7.26
2023-04-21T08:36:29.983Z,7.16
2023-04-21T08:38:57.463Z,7.56
2023-04-21T08:41:24.806Z,7.73
2023-04-21T08:43:51.447Z,8.01
2023-04-21T08:46:19.693Z,7.80
2023-04-21T08:48:47.138Z,7.52
2023-04-21T08:51:20.965Z,7.72
2023-04-21T08:53:47.417Z,7.53
2023-04-21T08:56:13.877Z,7.90
2023-04-21T08:58:41.538Z,7.80
2023-04-21T09:01:08.101Z,7.65
2023-04-21T09:03:34.841Z,7.79
2023-04-21T09:06:06.829Z,7.97
2023-04-21T09:08:38.004Z,8.24
2023-04-21T09:11:04.689Z,8.47
2023-04-21T09:13:37.991Z,8.80
2023-04-21T09:16:15.256Z,8.96
2023-04-21T09:18:44.183Z,8.43
2023-04-21T09:21:16.214Z,8.24
2023-04-21T09:23:50.856Z,8.22
2023-04-21T09:26:19.330Z,8.75
2023-04-21T09:28:47.554Z,8.71
2023-04-21T09:31:16.949Z,8.68
2023-04-21T09:33:59.281Z,8.59
2023-04-21T09:36:29.703Z,9.22
2023-04-21T09:39:20.658Z,8.90
2023-04-21T09:41:44.860Z,8.94
2023-04-21T09:44:11.456Z,9.33
2023-04-21T09:46:43.621Z,9.72
2023-04-21T09:49:13.805Z,9.62
2023-04-21T09:52:05.872Z,9.19
2023-04-21T09:54:34.555Z,9.50
2023-04-21T09:57:03.919Z,9.26
2023-04-21T09:59:37.007Z,9.08
2023-04-21T10:02:08.158Z,9.39
2023-04-21T10:04:37.237Z,9.47
2023-04-21T10:07:04.559Z,9.73
2023-04-21T10:09:41.569Z,9.35
2023-04-21T10:12:09.987Z,10.08
2023-04-21T10:14:36.929Z,9.33
2023-04-21T10:17:08.555Z,9.65
2023-04-21T10:19:40.615Z,9.38
2023-04-21T10:22:10.843Z,9.98
2023-04-21T10:24:39.655Z,10.07
2023-04-21T10:27:09.341Z,10.38
2023-04-21T10:32:08.398Z,10.34
2023-04-21T10:34:37.946Z,10.46
2023-04-21T10:37:04.741Z,10.07
2023-04-21T10:39:35.799Z,10.27
2023-04-21T10:42:18.143Z,10.36
2023-04-21T10:44:52.078Z,9.93
2023-04-21T10:47:46.006Z,10.08
2023-04-21T10:50:18.455Z,9.98
2023-04-21T10:53:04.317Z,10.16
2023-04-21T10:55:30.798Z,10.52
2023-04-21T10:58:01.902Z,10.45
2023-04-21T11:00:29.275Z,10.32
2023-04-21T11:03:04.189Z,10.12
2023-04-21T11:05:38.427Z,10.23
2023-04-21T11:08:05.292Z,10.46
2023-04-21T11:10:45.902Z,10.63
2023-04-21T11:13:12.461Z,10.29
2023-04-21T11:15:38.871Z,10.27
2023-04-21T11:18:07.336Z,10.66
2023-04-21T11:20:33.974Z,10.46
2023-04-21T11:23:00.658Z,10.35
2023-04-21T11:25:27.173Z,10.48
2023-04-21T11:27:55.869Z,10.43
2023-04-21T11:30:32.794Z,10.55
2023-04-21T11:32:59.667Z,10.49
2023-04-21T11:35:26.303Z,10.64
2023-04-21T11:37:52.881Z,10.74
2023-04-21T11:40:19.569Z,11.14
2023-04-21T11:42:46.359Z,11.29
2023-04-21T11:45:22.152Z,11.48
2023-04-21T11:47:49.415Z,11.39
2023-04-21T11:50:31.791Z,11.07
2023-04-21T11:52:58.403Z,11.19
2023-04-21T11:55:24.961Z,11.29
2023-04-21T11:57:52.053Z,11.05
2023-04-21T12:00:19.147Z,11.09
2023-04-21T12:02:54.533Z,11.20
2023-04-21T12:05:21.968Z,11.02
2023-04-21T12:07:48.905Z,10.83
2023-04-21T12:10:19.169Z,11.24
2023-04-21T12:12:46.179Z,11.38
2023-04-21T12:15:19.230Z,11.34
2023-04-21T12:17:47.919Z,11.51
2023-04-21T12:20:19.623Z,11.63
2023-04-21T12:22:46.754Z,11.91
2023-04-21T12:25:13.925Z,12.13
2023-04-21T12:27:54.066Z,12.16
2023-04-21T12:30:21.677Z,12.05
2023-04-21T12:32:48.784Z,11.95
2023-04-21T12:35:15.459Z,12.03
2023-04-21T12:37:41.942Z,11.85
2023-04-21T12:40:08.968Z,11.89
2023-04-21T12:42:37.842Z,11.71
2023-04-21T12:45:05.660Z,11.85
2023-04-21T12:47:32.329Z,11.92
2023-04-21T12:50:00.411Z,11.94
2023-04-21T12:52:27.015Z,11.85
2023-04-21T12:54:53.702Z,11.77
2023-04-21T12:57:21.287Z,11.77
2023-04-21T12:59:48.130Z,11.33
2023-04-21T13:02:14.989Z,11.28
2023-04-21T13:04:42.523Z,11.21
2023-04-21T13:07:09.638Z,10.97
2023-04-21T13:09:36.193Z,10.94
2023-04-21T13:12:03.147Z,10.91
2023-04-21T13:14:30.256Z,10.74
2023-04-21T13:16:56.976Z,10.57
2023-04-21T13:19:23.487Z,10.34
2023-04-21T13:21:51.488Z,10.09
2023-04-21T13:24:20.104Z,9.47
2023-04-21T13:26:46.577Z,8.91
2023-04-21T13:29:13.144Z,8.38
2023-04-21T13:31:39.627Z,8.11
2023-04-21T13:34:06.177Z,7.91
2023-04-21T13:36:33.266Z,7.75
2023-04-21T13:39:00.744Z,7.66
2023-04-21T13:41:27.334Z,7.60
2023-04-21T13:43:53.790Z,7.62
2023-04-21T13:46:20.494Z,7.69
2023-04-21T13:48:47.087Z,7.76
2023-04-21T13:51:13.654Z,7.92
2023-04-21T13:53:41.158Z,8.19
2023-04-21T13:56:08.375Z,8.67
2023-04-21T13:58:35.809Z,9.15
2023-04-21T14:01:02.274Z,9.39
2023-04-21T14:03:29.100Z,9.78
2023-04-21T14:05:56.279Z,10.07
2023-04-21T14:08:23.077Z,10.40
2023-04-21T14:10:49.523Z,10.57
2023-04-21T14:13:33.104Z,10.37
2023-04-21T14:16:02.478Z,10.61
2023-04-21T14:18:29.678Z,10.39
2023-04-21T14:20:56.137Z,10.38
2023-04-21T14:23:22.578Z,10.59
2023-04-21T14:25:49.118Z,10.96
2023-04-21T14:28:15.793Z,11.45
2023-04-21T14:30:43.118Z,11.53
2023-04-21T14:33:09.836Z,11.81
2023-04-21T14:35:39.568Z,12.04
2023-04-21T14:38:06.101Z,11.56
2023-04-21T14:40:33.000Z,11.59
2023-04-21T14:42:59.531Z,11.56
2023-04-21T14:45:26.179Z,11.38
2023-04-21T14:47:53.119Z,11.38
2023-04-21T14:50:20.396Z,11.10
2023-04-21T14:52:49.500Z,11.16
2023-04-21T14:55:16.600Z,11.36
2023-04-21T14:57:43.257Z,11.23
2023-04-21T15:00:10.595Z,11.39
2023-04-21T15:02:37.251Z,11.33
2023-04-21T15:05:04.200Z,11.60
2023-04-21T15:07:30.663Z,12.08
2023-04-21T15:09:57.183Z,12.32
2023-04-21T15:12:23.826Z,12.32
2023-04-21T15:14:50.297Z,12.23
2023-04-21T15:17:16.778Z,11.59
2023-04-21T15:19:43.276Z,11.41
2023-04-21T15:22:10.519Z,11.38
2023-04-21T15:24:37.023Z,11.48
2023-04-21T15:27:04.019Z,11.65
2023-04-21T15:29:30.478Z,11.78
2023-04-21T15:31:57.176Z,11.74
2023-04-21T15:34:23.625Z,11.89
2023-04-21T15:36:50.070Z,12.07
2023-04-21T15:39:16.569Z,12.09
2023-04-21T15:41:43.122Z,11.98
2023-04-21T15:44:10.972Z,12.21
2023-04-21T15:46:37.526Z,11.87
2023-04-21T15:49:04.060Z,11.78
2023-04-21T15:51:34.927Z,11.75
2023-04-21T15:54:01.402Z,11.86
2023-04-21T15:56:27.945Z,11.70
2023-04-21T15:58:54.404Z,11.57
2023-04-21T16:01:22.321Z,11.75
2023-04-21T16:03:49.506Z,11.68
2023-04-21T16:06:16.652Z,11.87
2023-04-21T16:08:43.414Z,11.87
2023-04-21T16:11:10.095Z,11.92
2023-04-21T16:13:36.619Z,11.89
2023-04-21T16:16:03.153Z,11.80
2023-04-21T16:18:29.817Z,11.77
2023-04-21T16:20:56.372Z,11.85
2023-04-21T16:23:24.590Z,11.75
2023-04-21T16:25:51.117Z,11.70
2023-04-21T16:28:17.573Z,11.61
2023-04-21T16:30:45.148Z,11.66
2023-04-21T16:33:11.729Z,11.65
2023-04-21T16:35:39.085Z,11.61
2023-04-21T16:38:06.104Z,11.77
2023-04-21T16:40:33.166Z,11.95
2023-04-21T16:42:59.813Z,12.05
2023-04-21T16:45:28.128Z,12.19
2023-04-21T16:47:54.801Z,12.25
2023-04-21T16:50:22.204Z,12.17
2023-04-21T16:52:48.951Z,11.93
2023-04-21T16:55:15.523Z,11.66
2023-04-21T16:57:41.996Z,11.32
2023-04-21T17:00:09.560Z,11.01
2023-04-21T17:02:36.472Z,10.82
2023-04-21T17:05:03.935Z,10.71
2023-04-21T17:07:32.013Z,10.53
2023-04-21T17:09:58.606Z,10.43
2023-04-21T17:12:25.258Z,10.37
2023-04-21T17:14:51.889Z,10.35
2023-04-21T17:17:18.573Z,10.26
2023-04-21T17:19:45.097Z,10.20
2023-04-21T17:22:11.620Z,10.10
2023-04-21T17:24:51.811Z,10.08
2023-04-21T17:27:20.156Z,9.99
2023-04-21T17:29:46.947Z,9.93
2023-04-21T17:32:13.901Z,9.88
2023-04-21T17:34:40.624Z,9.83
2023-04-21T17:37:07.249Z,9.78
2023-04-21T17:39:33.728Z,9.76
2023-04-21T17:42:01.874Z,9.70
2023-04-21T17:44:28.328Z,9.64
2023-04-21T17:46:54.748Z,9.58
2023-04-21T17:49:22.971Z,9.51
2023-04-21T17:51:49.396Z,9.41
2023-04-21T17:54:16.865Z,9.32
2023-04-21T17:56:45.466Z,9.23
2023-04-21T17:59:12.176Z,9.17
2023-04-21T18:01:38.623Z,9.14
2023-04-21T18:04:05.335Z,9.07
2023-04-21T18:06:32.114Z,9.04
2023-04-21T18:08:58.573Z,8.99
2023-04-21T18:11:25.047Z,8.94
2023-04-21T18:13:51.711Z,8.88
2023-04-21T18:16:18.275Z,8.83
2023-04-21T18:18:44.851Z,8.78
2023-04-21T18:21:11.520Z,8.74
2023-04-21T18:23:37.989Z,8.71
2023-04-21T18:26:04.559Z,8.73
2023-04-21T18:28:31.911Z,8.77
2023-04-21T18:30:59.740Z,8.73
2023-04-21T18:33:26.625Z,8.68
2023-04-21T18:35:53.134Z,8.59
2023-04-21T18:38:19.762Z,8.50
2023-04-21T18:40:46.302Z,8.37
2023-04-21T18:43:12.796Z,8.27
2023-04-21T18:45:39.417Z,8.15
2023-04-21T18:48:05.931Z,8.09
2023-04-21T18:50:35.220Z,7.97
2023-04-21T18:53:03.127Z,7.85
2023-04-21T18:55:30.612Z,7.74
2023-04-21T18:57:57.087Z,7.64
2023-04-21T19:00:23.528Z,7.56
2023-04-21T19:02:51.277Z,7.51
2023-04-21T19:05:18.160Z,7.54
2023-04-21T19:07:44.602Z,7.50
2023-04-21T19:10:11.229Z,7.47
2023-04-21T19:12:37.937Z,7.50
2023-04-21T19:15:04.803Z,7.53
2023-04-21T19:17:31.282Z,7.52
2023-04-21T19:19:57.858Z,7.51
2023-04-21T19:22:24.349Z,7.52
2023-04-21T19:24:51.406Z,7.57
2023-04-21T19:27:17.886Z,7.68
2023-04-21T19:29:44.312Z,7.59
2023-04-21T19:32:10.858Z,7.64
2023-04-21T19:34:37.569Z,7.57
2023-04-21T19:37:04.476Z,7.46
2023-04-21T19:39:30.935Z,7.63
2023-04-21T19:41:57.951Z,7.75
2023-04-21T19:44:24.412Z,7.57
2023-04-21T19:46:51.131Z,7.75
2023-04-21T19:49:17.684Z,7.67
2023-04-21T19:51:44.115Z,7.56
2023-04-21T19:54:12.376Z,7.49
2023-04-21T19:56:39.770Z,7.30
2023-04-21T19:59:06.550Z,7.10
2023-04-21T20:01:36.411Z,7.11
2023-04-21T20:04:04.197Z,7.08
2023-04-21T20:06:32.014Z,7.04
2023-04-21T20:08:58.576Z,6.95
2023-04-21T20:11:27.494Z,6.87
2023-04-21T20:13:55.343Z,6.82
2023-04-21T20:16:21.857Z,6.80
2023-04-21T20:18:48.937Z,6.91
2023-04-21T20:21:15.775Z,7.00
2023-04-21T20:23:42.225Z,7.06
2023-04-21T20:26:08.714Z,7.11
2023-04-21T20:28:36.053Z,7.24
2023-04-21T20:31:02.687Z,7.29
2023-04-21T20:33:29.245Z,7.28
2023-04-21T20:35:56.928Z,7.28
2023-04-21T20:38:26.546Z,7.28
2023-04-21T20:40:53.312Z,7.18
2023-04-21T20:43:20.155Z,7.13
2023-04-21T20:45:50.323Z,7.09
2023-04-21T20:48:16.889Z,7.03
2023-04-21T20:50:45.745Z,7.01
2023-04-21T20:53:12.927Z,6.98
2023-04-21T20:55:39.475Z,6.97
2023-04-21T20:58:05.975Z,6.89
2023-04-21T21:00:34.371Z,6.85
2023-04-21T21:03:01.574Z,6.78
2023-04-21T21:05:30.269Z,6.70
2023-04-21T21:07:56.973Z,6.64
2023-04-21T21:10:23.452Z,6.58
2023-04-21T21:12:49.884Z,6.51
2023-04-21T21:15:16.564Z,6.46
2023-04-21T21:17:43.141Z,6.44
2023-04-21T21:20:10.383Z,6.38
2023-04-21T21:22:36.916Z,6.35
2023-04-21T21:25:03.701Z,6.34
2023-04-21T21:27:30.170Z,6.34
2023-04-21T21:29:56.613Z,6.44
2023-04-21T21:32:23.070Z,6.61
2023-04-21T21:34:52.052Z,6.90
2023-04-21T21:37:19.059Z,7.00
2023-04-21T21:39:45.610Z,7.11
2023-04-21T21:42:12.114Z,7.15
2023-04-21T21:44:38.638Z,7.22
2023-04-21T21:47:05.679Z,7.27
2023-04-21T21:49:32.542Z,7.29
2023-04-21T21:51:58.995Z,7.29
2023-04-21T21:54:25.458Z,7.28
2023-04-21T21:56:51.936Z,7.29
2023-04-21T21:59:18.384Z,7.31
2023-04-21T22:01:44.979Z,7.33
2023-04-21T22:04:11.631Z,7.34
2023-04-21T22:06:38.187Z,7.32
2023-04-21T22:09:05.173Z,7.30
2023-04-21T22:11:31.930Z,7.26
2023-04-21T22:14:07.731Z,7.26
2023-04-21T22:16:42.950Z,7.25
2023-04-21T22:19:10.528Z,7.27
2023-04-21T22:21:37.106Z,7.29
2023-04-21T22:24:03.915Z,7.31
2023-04-21T22:26:31.316Z,7.34
2023-04-21T22:28:57.793Z,7.36
2023-04-21T22:31:25.605Z,7.32
2023-04-21T22:33:52.103Z,7.33
2023-04-21T22:36:18.540Z,7.35
2023-04-21T22:38:45.719Z,7.34
2023-04-21T22:41:13.502Z,7.34
2023-04-21T22:43:39.993Z,7.36
2023-04-21T22:46:06.869Z,7.37
2023-04-21T22:48:36.216Z,7.35
2023-04-21T22:51:03.595Z,7.33
2023-04-21T22:53:30.342Z,7.32
2023-04-21T22:55:56.888Z,7.31
2023-04-21T22:58:24.259Z,7.32
2023-04-21T23:00:50.765Z,7.30
2023-04-21T23:03:17.532Z,7.31
2023-04-21T23:05:44.139Z,7.31
2023-04-21T23:08:10.664Z,7.28
2023-04-21T23:10:37.135Z,7.27
2023-04-21T23:13:03.578Z,7.28
2023-04-21T23:15:30.111Z,7.29
2023-04-21T23:17:56.594Z,7.30
2023-04-21T23:20:23.616Z,7.30
2023-04-21T23:22:50.328Z,7.33
2023-04-21T23:25:16.816Z,7.32
2023-04-21T23:27:43.885Z,7.27
2023-04-21T23:30:10.897Z,7.27
2023-04-21T23:32:37.462Z,7.28
2023-04-21T23:35:04.446Z,7.26
2023-04-21T23:37:30.990Z,7.24
2023-04-21T23:39:57.459Z,7.28
2023-04-21T23:42:23.942Z,7.29
2023-04-21T23:44:50.594Z,7.30
2023-04-21T23:47:17.010Z,7.32
2023-04-21T23:49:43.523Z,7.33
2023-04-21T23:52:10.389Z,7.34
2023-04-21T23:54:36.835Z,7.38
2023-04-21T23:57:03.447Z,7.32
2023-04-21T23:59:29.940Z,7.25
